createdAt,value
2019-05-21T00:00:21.576Z,36.33
2019-05-21T00:02:23.580Z,36.00
2019-05-21T00:04:28.279Z,35.37
2019-05-21T00:06:28.829Z,35.67
2019-05-21T00:08:30.480Z,34.67
2019-05-21T00:10:32.212Z,34.17
2019-05-21T00:12:33.994Z,35.50
2019-05-21T00:14:35.653Z,37.07
2019-05-21T00:16:37.593Z,34.17
2019-05-21T00:18:39.257Z,36.30
2019-05-21T00:20:41.200Z,35.37
2019-05-21T00:22:42.871Z,34.23
2019-05-21T00:24:44.626Z,36.47
2019-05-21T00:26:46.489Z,34.50
2019-05-21T00:29:24.613Z,34.80
2019-05-21T00:32:02.763Z,34.77
2019-05-21T00:34:43.844Z,35.53
2019-05-21T00:37:20.928Z,35.40
2019-05-21T00:39:59.150Z,36.23
2019-05-21T00:42:01.004Z,37.00
2019-05-21T00:44:02.672Z,35.90
2019-05-21T00:46:04.352Z,35.80
2019-05-21T00:48:06.035Z,36.60
2019-05-21T00:50:07.887Z,35.77
2019-05-21T00:52:09.766Z,36.17
2019-05-21T00:54:11.518Z,36.27
2019-05-21T00:56:13.492Z,38.37
2019-05-21T00:58:15.444Z,37.70
2019-05-21T01:00:17.504Z,39.17
2019-05-21T01:02:19.177Z,36.87
2019-05-21T01:04:20.844Z,40.27
2019-05-21T01:06:22.512Z,39.03
2019-05-21T01:08:24.176Z,38.07
2019-05-21T01:10:26.172Z,38.57
2019-05-21T01:12:27.858Z,39.83
2019-05-21T01:14:29.521Z,40.37
2019-05-21T01:16:31.251Z,38.90
2019-05-21T01:18:33.272Z,39.20
2019-05-21T01:20:34.947Z,39.63
2019-05-21T01:22:36.626Z,38.70
2019-05-21T01:24:38.300Z,41.63
2019-05-21T01:26:39.986Z,36.10
2019-05-21T01:28:41.651Z,39.07
2019-05-21T01:30:43.319Z,37.80
2019-05-21T01:32:45.006Z,39.63
2019-05-21T01:34:46.689Z,37.30
2019-05-21T01:36:48.363Z,38.67
2019-05-21T01:38:50.330Z,35.53
2019-05-21T01:40:52.284Z,38.40
2019-05-21T01:42:53.964Z,38.13
2019-05-21T01:44:55.640Z,38.40
2019-05-21T01:46:57.317Z,37.30
2019-05-21T01:48:58.988Z,39.50
2019-05-21T01:51:00.654Z,40.83
2019-05-21T01:53:02.407Z,40.07
2019-05-21T01:55:04.218Z,36.50
2019-05-21T01:57:05.910Z,38.17
2019-05-21T01:59:07.569Z,38.23
2019-05-21T02:01:09.233Z,37.93
2019-05-21T02:03:10.914Z,36.63
2019-05-21T02:05:12.567Z,38.20
2019-05-21T02:07:14.237Z,38.00
2019-05-21T02:09:15.897Z,37.60
2019-05-21T02:11:17.576Z,37.40
2019-05-21T02:13:19.253Z,37.93
2019-05-21T02:15:20.917Z,37.50
2019-05-21T02:17:23.133Z,37.33
2019-05-21T02:19:24.776Z,38.17
2019-05-21T02:21:26.449Z,37.57
2019-05-21T02:23:28.125Z,39.60
2019-05-21T02:25:29.801Z,39.30
2019-05-21T02:27:31.486Z,39.00
2019-05-21T02:29:33.470Z,37.73
2019-05-21T02:31:35.138Z,41.20
2019-05-21T02:33:37.086Z,38.50
2019-05-21T02:35:53.712Z,37.83
2019-05-21T02:37:42.332Z,37.90
2019-05-21T02:39:43.994Z,36.40
2019-05-21T02:41:45.755Z,37.27
2019-05-21T02:43:47.429Z,37.83
2019-05-21T02:45:49.197Z,41.27
2019-05-21T02:47:50.883Z,37.07
2019-05-21T02:49:52.861Z,38.07
2019-05-21T02:51:54.533Z,40.13
2019-05-21T02:53:56.223Z,42.60
2019-05-21T02:55:57.971Z,38.30
2019-05-21T02:57:59.654Z,38.10
2019-05-21T03:00:03.242Z,40.60
2019-05-21T03:02:14.099Z,39.47
2019-05-21T03:04:15.781Z,38.63
2019-05-21T03:06:17.441Z,38.77
2019-05-21T03:08:19.117Z,38.17
2019-05-21T03:10:20.784Z,39.00
2019-05-21T03:12:22.437Z,39.53
2019-05-21T03:14:24.122Z,36.90
2019-05-21T03:16:25.793Z,37.93
2019-05-21T03:18:27.461Z,37.23
2019-05-21T03:20:29.132Z,37.13
2019-05-21T03:22:30.793Z,40.30
2019-05-21T03:24:32.475Z,36.60
2019-05-21T03:26:34.138Z,34.30
2019-05-21T03:28:35.818Z,35.27
2019-05-21T03:30:37.494Z,34.13
2019-05-21T03:32:39.264Z,34.30
2019-05-21T03:34:41.035Z,32.67
2019-05-21T03:36:42.693Z,32.00
2019-05-21T03:38:44.362Z,30.70
2019-05-21T03:40:46.020Z,29.50
2019-05-21T03:42:47.690Z,31.60
2019-05-21T03:44:59.607Z,31.30
2019-05-21T03:46:52.942Z,28.50
2019-05-21T03:48:54.618Z,29.10
2019-05-21T03:50:56.286Z,28.17
2019-05-21T03:52:58.044Z,27.97
2019-05-21T03:55:02.804Z,27.70
2019-05-21T03:57:03.392Z,26.80
2019-05-21T03:59:05.085Z,25.80
2019-05-21T04:01:06.832Z,27.10
2019-05-21T04:03:08.489Z,25.47
2019-05-21T04:05:10.477Z,25.70
2019-05-21T04:07:12.224Z,26.53
2019-05-21T04:09:13.905Z,25.33
2019-05-21T04:11:15.567Z,24.37
2019-05-21T04:13:17.221Z,24.30
2019-05-21T04:17:39.699Z,23.13
2019-05-21T04:19:41.381Z,23.57
2019-05-21T04:21:43.041Z,23.67
2019-05-21T04:23:44.705Z,22.30
2019-05-21T04:25:46.407Z,20.80
2019-05-21T04:27:48.153Z,20.40
2019-05-21T04:29:49.829Z,21.97
2019-05-21T04:31:51.508Z,21.37
2019-05-21T04:33:53.176Z,20.07
2019-05-21T04:35:54.849Z,20.97
2019-05-21T04:37:56.985Z,20.03
2019-05-21T04:39:58.661Z,20.60
2019-05-21T04:42:00.330Z,20.60
2019-05-21T04:44:02.060Z,19.73
2019-05-21T04:46:03.835Z,19.80
2019-05-21T04:48:05.749Z,20.87
2019-05-21T04:50:07.410Z,20.03
2019-05-21T04:52:09.078Z,18.80
2019-05-21T04:54:11.005Z,18.50
2019-05-21T04:56:12.681Z,19.27
2019-05-21T04:58:14.345Z,21.00
2019-05-21T05:00:16.016Z,19.50
2019-05-21T05:02:17.986Z,19.40
2019-05-21T05:04:21.929Z,20.17
2019-05-21T05:06:23.292Z,20.20
2019-05-21T05:08:24.966Z,21.17
2019-05-21T05:10:26.639Z,20.10
2019-05-21T05:12:28.306Z,21.10
2019-05-21T05:14:29.970Z,20.70
2019-05-21T05:16:31.640Z,20.60
2019-05-21T05:18:33.593Z,20.17
2019-05-21T05:20:35.557Z,19.57
2019-05-21T05:22:37.229Z,19.23
2019-05-21T05:24:38.893Z,18.60
2019-05-21T05:26:40.578Z,19.53
2019-05-21T05:28:42.254Z,19.13
2019-05-21T05:30:43.926Z,20.50
2019-05-21T05:32:45.601Z,18.20
2019-05-21T05:34:47.272Z,17.80
2019-05-21T05:36:48.953Z,19.67
2019-05-21T05:38:50.634Z,18.80
2019-05-21T05:40:52.310Z,19.97
2019-05-21T05:42:53.968Z,21.10
2019-05-21T05:44:55.655Z,21.63
2019-05-21T05:46:57.345Z,23.40
2019-05-21T05:49:04.893Z,21.70
2019-05-21T05:51:07.473Z,21.13
2019-05-21T05:53:09.135Z,21.43
2019-05-21T05:55:10.874Z,19.97
2019-05-21T05:57:12.693Z,18.57
2019-05-21T05:59:14.679Z,18.70
2019-05-21T06:01:16.662Z,17.60
2019-05-21T06:03:18.324Z,18.50
2019-05-21T06:05:20.001Z,16.90
2019-05-21T06:07:21.944Z,17.63
2019-05-21T06:09:23.615Z,18.10
2019-05-21T06:11:25.290Z,18.27
2019-05-21T06:13:26.953Z,18.13
2019-05-21T06:15:28.902Z,19.87
2019-05-21T06:17:30.578Z,18.83
2019-05-21T06:19:32.253Z,20.00
2019-05-21T06:21:34.231Z,19.03
2019-05-21T06:23:35.895Z,18.63
2019-05-21T06:25:37.898Z,19.40
2019-05-21T06:27:40.249Z,19.40
2019-05-21T06:29:41.961Z,19.53
2019-05-21T06:31:43.666Z,20.10
2019-05-21T06:33:45.404Z,21.10
2019-05-21T06:35:47.094Z,20.50
2019-05-21T06:37:48.769Z,20.33
2019-05-21T06:39:50.678Z,20.20
2019-05-21T06:41:52.358Z,21.70
2019-05-21T06:43:54.026Z,21.57
2019-05-21T06:45:55.680Z,20.17
2019-05-21T06:47:57.365Z,20.37
2019-05-21T06:49:59.156Z,20.10
2019-05-21T06:52:00.921Z,20.37
2019-05-21T06:54:02.854Z,20.70
2019-05-21T06:56:07.407Z,20.20
2019-05-21T06:58:08.150Z,19.37
2019-05-21T07:00:09.829Z,18.30
2019-05-21T07:02:11.522Z,18.80
2019-05-21T07:04:13.278Z,20.90
2019-05-21T07:06:14.949Z,21.23
2019-05-21T07:08:33.216Z,18.90
2019-05-21T07:10:20.243Z,20.60
2019-05-21T07:12:21.981Z,19.43
2019-05-21T07:14:23.925Z,19.97
2019-05-21T07:16:25.617Z,21.47
2019-05-21T07:18:27.293Z,19.97
2019-05-21T07:20:28.962Z,20.80
2019-05-21T07:22:30.676Z,19.90
2019-05-21T07:24:32.415Z,19.40
2019-05-21T07:26:34.091Z,18.60
2019-05-21T07:28:35.758Z,19.80
2019-05-21T07:30:37.443Z,21.30
2019-05-21T07:32:39.459Z,20.77
2019-05-21T07:34:41.487Z,21.93
2019-05-21T07:36:43.410Z,22.63
2019-05-21T07:38:53.407Z,22.87
2019-05-21T07:40:48.632Z,21.93
2019-05-21T07:42:50.347Z,23.83
2019-05-21T07:44:52.016Z,23.40
2019-05-21T07:46:53.701Z,24.10
2019-05-21T07:48:55.689Z,25.97
2019-05-21T07:50:57.365Z,25.93
2019-05-21T07:52:59.020Z,27.70
2019-05-21T07:55:00.690Z,24.27
2019-05-21T07:57:02.390Z,25.70
2019-05-21T07:59:04.065Z,25.80
2019-05-21T08:01:05.729Z,25.50
2019-05-21T08:03:07.408Z,26.50
2019-05-21T08:05:09.071Z,24.80
2019-05-21T08:07:10.758Z,25.73
2019-05-21T08:09:14.645Z,26.70
2019-05-21T08:11:16.005Z,26.70
2019-05-21T08:13:17.677Z,26.00
2019-05-21T08:15:19.345Z,25.20
2019-05-21T08:17:21.027Z,25.77
2019-05-21T08:19:22.702Z,26.73
2019-05-21T08:21:24.366Z,26.90
2019-05-21T08:23:26.063Z,24.10
2019-05-21T08:25:27.718Z,25.63
2019-05-21T08:27:29.399Z,25.43
2019-05-21T08:29:31.057Z,25.57
2019-05-21T08:31:32.825Z,26.17
2019-05-21T08:33:34.508Z,23.47
2019-05-21T08:35:36.198Z,25.90
2019-05-21T08:37:37.860Z,25.10
2019-05-21T08:39:39.530Z,24.97
2019-05-21T08:41:41.293Z,25.57
2019-05-21T08:43:42.991Z,27.00
2019-05-21T08:45:44.666Z,28.77
2019-05-21T08:47:46.334Z,25.90
2019-05-21T08:49:48.007Z,25.63
2019-05-21T08:51:49.685Z,26.07
2019-05-21T08:53:51.355Z,24.63
2019-05-21T08:55:53.013Z,23.30
2019-05-21T08:58:06.482Z,23.00
2019-05-21T08:59:58.255Z,24.70
2019-05-21T09:01:59.969Z,23.40
2019-05-21T09:04:01.887Z,21.27
2019-05-21T09:06:03.553Z,21.40
2019-05-21T09:08:05.281Z,17.50
2019-05-21T09:10:08.143Z,18.20
2019-05-21T09:12:09.803Z,16.63
2019-05-21T09:14:11.506Z,17.07
2019-05-21T09:16:13.175Z,18.17
2019-05-21T09:18:14.850Z,16.27
2019-05-21T09:20:17.308Z,17.03
2019-05-21T09:22:18.964Z,15.40
2019-05-21T09:24:20.913Z,15.90
2019-05-21T09:26:22.582Z,14.50
2019-05-21T09:28:24.248Z,14.80
2019-05-21T09:30:25.923Z,14.00
2019-05-21T09:32:27.584Z,14.40
2019-05-21T09:34:29.272Z,13.70
2019-05-21T09:36:30.938Z,13.70
2019-05-21T09:38:32.608Z,13.80
2019-05-21T09:40:34.260Z,13.37
2019-05-21T09:42:35.948Z,14.30
2019-05-21T09:44:37.712Z,13.10
2019-05-21T09:46:39.411Z,14.40
2019-05-21T09:48:41.196Z,13.80
2019-05-21T09:50:42.870Z,13.77
2019-05-21T09:52:44.538Z,13.30
2019-05-21T09:54:46.222Z,14.07
2019-05-21T09:56:47.885Z,12.60
2019-05-21T09:58:49.960Z,13.57
2019-05-21T10:01:17.174Z,14.27
2019-05-21T10:03:20.836Z,14.03
2019-05-21T10:05:22.806Z,14.77
2019-05-21T10:07:39.144Z,13.73
2019-05-21T10:09:28.058Z,14.57
2019-05-21T10:11:29.724Z,14.90
2019-05-21T10:13:31.694Z,15.40
2019-05-21T10:15:33.354Z,14.77
2019-05-21T10:17:35.025Z,17.23
2019-05-21T10:19:37.056Z,16.77
2019-05-21T10:21:38.724Z,17.20
2019-05-21T10:23:40.398Z,16.93
2019-05-21T10:25:42.064Z,16.70
2019-05-21T10:27:43.729Z,15.93
2019-05-21T10:29:45.411Z,17.23
2019-05-21T10:31:47.073Z,15.10
2019-05-21T10:33:48.775Z,16.53
2019-05-21T10:35:50.525Z,15.80
2019-05-21T10:37:55.270Z,17.57
2019-05-21T10:39:55.769Z,19.60
2019-05-21T10:41:57.442Z,17.47
2019-05-21T10:43:59.151Z,18.70
2019-05-21T10:46:01.185Z,19.70
2019-05-21T10:48:02.861Z,20.50
2019-05-21T10:50:05.011Z,22.00
2019-05-21T10:52:06.676Z,25.20
2019-05-21T10:54:08.457Z,28.10
2019-05-21T10:56:10.109Z,30.47
2019-05-21T10:58:11.777Z,34.30
2019-05-21T11:00:22.731Z,34.20
2019-05-21T11:02:29.410Z,34.60
2019-05-21T11:04:41.452Z,36.37
2019-05-21T11:06:43.743Z,36.47
2019-05-21T11:08:45.397Z,39.77
2019-05-21T11:10:47.345Z,40.97
2019-05-21T11:12:49.001Z,41.80
2019-05-21T11:14:50.683Z,37.67
2019-05-21T11:16:52.349Z,37.00
2019-05-21T11:18:54.018Z,36.23
2019-05-21T11:20:55.696Z,34.10
2019-05-21T11:22:58.396Z,31.80
2019-05-21T11:25:00.365Z,36.17
2019-05-21T11:27:04.758Z,32.50
2019-05-21T11:29:05.592Z,35.33
2019-05-21T11:31:07.296Z,35.00
2019-05-21T11:33:09.043Z,32.77
2019-05-21T11:35:11.225Z,31.53
2019-05-21T11:37:12.877Z,34.23
2019-05-21T11:39:14.550Z,33.43
2019-05-21T11:41:16.469Z,32.87
2019-05-21T11:43:18.292Z,31.30
2019-05-21T11:45:31.850Z,31.47
2019-05-21T11:47:23.557Z,29.20
2019-05-21T11:49:25.267Z,30.10
2019-05-21T11:51:26.996Z,29.43
2019-05-21T11:53:31.798Z,27.80
2019-05-21T11:55:32.244Z,28.03
2019-05-21T11:57:33.917Z,26.73
2019-05-21T11:59:35.585Z,27.67
2019-05-21T12:01:37.248Z,26.07
2019-05-21T12:03:38.922Z,26.73
2019-05-21T12:05:40.649Z,26.53
2019-05-21T12:07:42.379Z,26.63
2019-05-21T12:09:44.038Z,26.60
2019-05-21T12:11:45.713Z,27.20
2019-05-21T12:13:47.377Z,27.40
2019-05-21T12:15:49.057Z,24.67
2019-05-21T12:17:50.721Z,25.63
2019-05-21T12:19:52.409Z,26.40
2019-05-21T12:21:54.177Z,25.23
2019-05-21T12:23:55.849Z,24.33
2019-05-21T12:25:57.524Z,25.53
2019-05-21T12:27:59.200Z,25.93
2019-05-21T12:30:00.866Z,24.73
2019-05-21T12:32:02.651Z,24.90
2019-05-21T12:34:04.320Z,25.13
2019-05-21T12:36:06.293Z,24.90
2019-05-21T12:38:07.962Z,24.07
2019-05-21T12:40:09.940Z,23.90
2019-05-21T12:42:11.620Z,25.90
2019-05-21T12:44:13.383Z,27.00
2019-05-21T12:46:15.069Z,25.70
2019-05-21T12:48:16.737Z,26.07
2019-05-21T12:50:18.662Z,28.53
2019-05-21T12:52:20.325Z,24.90
2019-05-21T12:54:21.989Z,26.47
2019-05-21T12:56:23.954Z,27.60
2019-05-21T12:58:25.937Z,27.17
2019-05-21T13:00:28.176Z,28.57
2019-05-21T13:02:29.840Z,29.80
2019-05-21T13:04:31.596Z,28.10
2019-05-21T13:06:33.278Z,29.63
2019-05-21T13:08:34.937Z,28.23
2019-05-21T13:10:36.635Z,28.87
2019-05-21T13:12:38.307Z,28.60
2019-05-21T13:14:40.289Z,27.80
2019-05-21T13:16:41.970Z,29.30
2019-05-21T13:18:43.643Z,27.00
2019-05-21T13:20:45.321Z,27.23
2019-05-21T13:22:46.995Z,27.30
2019-05-21T13:24:48.960Z,25.03
2019-05-21T13:26:51.223Z,26.10
2019-05-21T13:28:52.889Z,26.13
2019-05-21T13:30:54.570Z,27.37
2019-05-21T13:32:56.234Z,23.37
2019-05-21T13:34:57.901Z,24.70
2019-05-21T13:36:59.628Z,24.63
2019-05-21T13:39:01.353Z,24.13
2019-05-21T13:41:04.937Z,22.80
2019-05-21T13:43:06.601Z,24.40
2019-05-21T13:45:08.879Z,25.27
2019-05-21T13:47:10.557Z,27.43
2019-05-21T13:49:12.225Z,28.17
2019-05-21T13:51:13.897Z,29.50
2019-05-21T13:53:15.579Z,31.47
2019-05-21T13:55:17.241Z,29.30
2019-05-21T13:57:18.913Z,29.80
2019-05-21T13:59:20.589Z,30.40
2019-05-21T14:01:39.315Z,27.20
2019-05-21T14:03:25.843Z,26.00
2019-05-21T14:05:28.115Z,27.37
2019-05-21T14:07:29.782Z,27.77
2019-05-21T14:09:31.472Z,27.93
2019-05-21T14:11:33.673Z,27.47
2019-05-21T14:13:35.338Z,28.60
2019-05-21T14:15:37.243Z,26.80
2019-05-21T14:17:38.923Z,26.60
2019-05-21T14:19:40.649Z,27.60
2019-05-21T14:21:42.907Z,24.70
2019-05-21T14:23:44.574Z,23.47
2019-05-21T14:25:46.354Z,23.20
2019-05-21T14:27:48.017Z,24.70
2019-05-21T14:29:49.684Z,24.17
2019-05-21T14:31:51.461Z,24.00
2019-05-21T14:33:53.140Z,24.73
2019-05-21T14:35:55.113Z,20.57
2019-05-21T14:37:56.980Z,20.87
2019-05-21T14:39:58.695Z,21.53
2019-05-21T14:42:00.567Z,21.10
2019-05-21T14:44:02.553Z,23.03
2019-05-21T14:46:04.356Z,22.40
2019-05-21T14:48:06.027Z,21.97
2019-05-21T14:50:07.693Z,22.50
2019-05-21T14:52:09.813Z,22.27
2019-05-21T14:54:25.551Z,22.10
2019-05-21T14:56:15.357Z,23.20
2019-05-21T14:58:17.026Z,25.70
2019-05-21T15:00:25.639Z,25.90
2019-05-21T15:02:27.309Z,26.60
2019-05-21T15:04:29.162Z,26.50
2019-05-21T15:06:31.149Z,26.07
2019-05-21T15:08:32.814Z,25.53
2019-05-21T15:10:47.370Z,25.53
2019-05-21T15:12:38.074Z,24.73
2019-05-21T15:14:39.758Z,25.53
2019-05-21T15:16:41.529Z,24.07
2019-05-21T15:18:43.190Z,24.80
2019-05-21T15:21:04.937Z,24.50
2019-05-21T15:23:07.054Z,24.00
2019-05-21T15:25:08.725Z,23.50
2019-05-21T15:27:10.397Z,24.80
2019-05-21T15:29:12.065Z,21.60
2019-05-21T15:31:13.723Z,23.50
2019-05-21T15:33:15.412Z,23.10
2019-05-21T15:35:17.066Z,22.17
2019-05-21T15:37:18.845Z,24.40
2019-05-21T15:39:20.629Z,23.23
2019-05-21T15:41:22.289Z,22.90
2019-05-21T15:43:23.972Z,24.20
2019-05-21T15:45:25.645Z,24.60
2019-05-21T15:47:27.322Z,25.60
2019-05-21T15:49:36.617Z,25.33
2019-05-21T15:51:32.813Z,24.77
2019-05-21T15:53:34.520Z,25.97
2019-05-21T15:55:36.218Z,29.10
2019-05-21T15:57:37.893Z,27.60
2019-05-21T15:59:39.556Z,30.50
2019-05-21T16:01:41.267Z,30.70
2019-05-21T16:03:43.201Z,29.47
2019-05-21T16:05:44.874Z,30.73
2019-05-21T16:07:46.554Z,31.60
2019-05-21T16:09:48.213Z,31.20
2019-05-21T16:11:49.885Z,32.07
2019-05-21T16:13:51.567Z,29.70
2019-05-21T16:15:53.597Z,32.30
2019-05-21T16:17:55.374Z,30.93
2019-05-21T16:19:57.037Z,32.60
2019-05-21T16:21:58.801Z,30.90
2019-05-21T16:24:00.539Z,32.60
2019-05-21T16:26:02.272Z,29.03
2019-05-21T16:28:03.956Z,30.27
2019-05-21T16:30:05.695Z,27.07
2019-05-21T16:32:07.361Z,24.50
2019-05-21T16:34:09.042Z,25.47
2019-05-21T16:36:10.705Z,24.10
2019-05-21T16:38:12.675Z,24.50
2019-05-21T16:40:14.346Z,25.50
2019-05-21T16:42:16.014Z,26.40
2019-05-21T16:44:18.043Z,25.30
2019-05-21T16:46:19.814Z,25.50
2019-05-21T16:48:21.524Z,25.60
2019-05-21T16:50:23.713Z,25.40
2019-05-21T16:52:25.388Z,25.10
2019-05-21T16:54:27.057Z,26.00
2019-05-21T16:56:28.993Z,25.93
2019-05-21T16:58:30.660Z,26.07
2019-05-21T17:00:32.338Z,25.50
2019-05-21T17:02:34.117Z,25.83
2019-05-21T17:04:35.788Z,24.67
2019-05-21T17:06:37.495Z,25.77
2019-05-21T17:08:39.248Z,25.33
2019-05-21T17:10:41.009Z,25.30
2019-05-21T17:12:42.838Z,28.07
2019-05-21T17:14:44.542Z,24.90
2019-05-21T17:16:46.262Z,25.20
2019-05-21T17:18:47.951Z,26.00
2019-05-21T17:20:49.724Z,26.97
2019-05-21T17:22:51.382Z,25.10
2019-05-21T17:24:53.403Z,25.63
2019-05-21T17:26:55.057Z,25.53
2019-05-21T17:28:56.745Z,27.30
2019-05-21T17:30:58.514Z,25.30
2019-05-21T17:33:00.169Z,24.33
2019-05-21T17:35:04.105Z,24.17
2019-05-21T17:37:05.776Z,24.93
2019-05-21T17:39:07.463Z,24.53
2019-05-21T17:41:09.222Z,24.60
2019-05-21T17:43:10.895Z,25.57
2019-05-21T17:45:12.576Z,25.53
2019-05-21T17:47:14.266Z,25.50
2019-05-21T17:49:16.043Z,26.90
2019-05-21T17:51:17.705Z,27.03
2019-05-21T17:53:19.402Z,26.27
2019-05-21T17:55:21.070Z,25.93
2019-05-21T17:57:23.446Z,25.73
2019-05-21T17:59:25.131Z,28.07
2019-05-21T18:01:27.649Z,25.57
2019-05-21T18:03:30.890Z,25.17
2019-05-21T18:05:32.556Z,26.70
2019-05-21T18:07:34.509Z,25.20
2019-05-21T18:09:36.185Z,26.77
2019-05-21T18:11:38.568Z,27.00
2019-05-21T18:13:41.313Z,26.30
2019-05-21T18:15:43.619Z,25.40
2019-05-21T18:17:45.432Z,24.20
2019-05-21T18:19:48.712Z,25.70
2019-05-21T18:21:50.386Z,23.80
2019-05-21T18:23:53.158Z,25.30
2019-05-21T18:25:55.113Z,25.63
2019-05-21T18:27:56.780Z,25.33
2019-05-21T18:29:58.793Z,23.90
2019-05-21T18:32:00.462Z,24.47
2019-05-21T18:34:02.701Z,25.70
2019-05-21T18:36:04.365Z,25.60
2019-05-21T18:38:06.020Z,23.73
2019-05-21T18:40:08.001Z,22.30
2019-05-21T18:42:21.828Z,24.93
2019-05-21T18:44:13.576Z,23.47
2019-05-21T18:46:15.308Z,23.70
2019-05-21T18:48:16.964Z,25.00
2019-05-21T18:50:18.758Z,25.77
2019-05-21T18:52:20.526Z,25.63
2019-05-21T18:54:22.185Z,24.17
2019-05-21T18:56:23.954Z,24.60
2019-05-21T18:58:25.626Z,25.27
2019-05-21T19:00:27.834Z,24.57
2019-05-21T19:02:29.513Z,23.87
2019-05-21T19:04:31.185Z,24.50
2019-05-21T19:06:32.848Z,26.17
2019-05-21T19:08:34.784Z,25.77
2019-05-21T19:10:36.452Z,24.60
2019-05-21T19:12:38.870Z,26.77
2019-05-21T19:14:44.790Z,25.10
2019-05-21T19:16:44.460Z,25.63
2019-05-21T19:18:46.353Z,26.37
2019-05-21T19:20:50.019Z,27.30
2019-05-21T19:22:51.670Z,26.30
2019-05-21T19:24:53.355Z,27.60
2019-05-21T19:26:55.473Z,25.87
2019-05-21T19:28:57.449Z,25.63
2019-05-21T19:30:59.132Z,24.50
2019-05-21T19:33:00.849Z,23.30
2019-05-21T19:35:02.601Z,25.47
2019-05-21T19:37:04.273Z,24.27
2019-05-21T19:39:06.078Z,22.87
2019-05-21T19:41:07.753Z,24.03
2019-05-21T19:43:10.044Z,24.00
2019-05-21T19:45:13.362Z,23.67
2019-05-21T19:47:15.016Z,23.53
2019-05-21T19:49:16.697Z,22.73
2019-05-21T19:51:18.969Z,23.20
2019-05-21T19:53:20.633Z,21.10
2019-05-21T19:55:22.300Z,22.13
2019-05-21T19:57:25.878Z,21.50
2019-05-21T19:59:27.545Z,21.50
2019-05-21T20:01:29.228Z,21.70
2019-05-21T20:03:30.992Z,21.20
2019-05-21T20:05:32.665Z,21.20
2019-05-21T20:07:34.362Z,21.43
2019-05-21T20:09:37.220Z,22.67
2019-05-21T20:11:39.006Z,22.40
2019-05-21T20:13:40.673Z,19.53
2019-05-21T20:15:42.645Z,20.87
2019-05-21T20:17:45.424Z,21.87
2019-05-21T20:19:49.319Z,22.80
2019-05-21T20:21:50.980Z,21.90
2019-05-21T20:23:53.087Z,21.90
2019-05-21T20:25:56.987Z,23.00
2019-05-21T20:27:59.534Z,23.27
2019-05-21T20:30:12.383Z,23.67
2019-05-21T20:32:06.463Z,22.23
2019-05-21T20:34:10.550Z,23.87
2019-05-21T20:36:12.238Z,22.37
2019-05-21T20:38:13.890Z,22.73
2019-05-21T20:40:16.193Z,25.23
2019-05-21T20:42:20.526Z,24.57
2019-05-21T20:44:22.809Z,23.03
2019-05-21T20:46:25.137Z,24.00
2019-05-21T20:48:31.216Z,23.77
2019-05-21T20:50:33.402Z,25.70
2019-05-21T20:52:35.585Z,24.87
2019-05-21T20:54:37.854Z,25.60
2019-05-21T20:56:39.721Z,25.20
2019-05-21T20:58:41.417Z,25.70
2019-05-21T21:00:57.905Z,25.30
2019-05-21T21:02:59.857Z,27.30
2019-05-21T21:05:03.323Z,25.50
2019-05-21T21:07:06.872Z,26.27
2019-05-21T21:09:11.599Z,25.77
2019-05-21T21:11:13.481Z,27.13
2019-05-21T21:13:15.741Z,28.30
2019-05-21T21:15:17.901Z,27.53
2019-05-21T21:17:19.585Z,27.13
2019-05-21T21:19:21.934Z,27.60
2019-05-21T21:21:24.209Z,27.50
2019-05-21T21:23:28.472Z,28.40
2019-05-21T21:25:30.142Z,27.40
2019-05-21T21:27:32.258Z,27.40
2019-05-21T21:29:34.036Z,29.70
2019-05-21T21:31:35.705Z,27.40
2019-05-21T21:33:37.804Z,30.10
2019-05-21T21:35:40.493Z,29.07
2019-05-21T21:37:42.202Z,30.23
2019-05-21T21:39:44.573Z,31.40
2019-05-21T21:41:46.893Z,30.23
2019-05-21T21:43:48.676Z,29.87
2019-05-21T21:45:50.349Z,31.07
2019-05-21T21:47:53.725Z,30.33
2019-05-21T21:49:55.396Z,31.00
2019-05-21T21:51:57.173Z,32.33
2019-05-21T21:53:59.237Z,31.10
2019-05-21T21:56:01.206Z,30.90
2019-05-21T21:58:02.891Z,32.23
2019-05-21T22:00:14.922Z,31.90
2019-05-21T22:02:22.594Z,29.33
2019-05-21T22:04:29.565Z,31.97
2019-05-21T22:06:31.741Z,31.00
2019-05-21T22:08:33.826Z,30.90
2019-05-21T22:10:36.097Z,32.00
2019-05-21T22:12:38.076Z,31.57
2019-05-21T22:14:50.174Z,35.67
2019-05-21T22:16:44.417Z,34.70
2019-05-21T22:18:47.020Z,32.17
2019-05-21T22:20:49.242Z,34.90
2019-05-21T22:22:51.654Z,33.73
2019-05-21T22:24:53.524Z,35.97
2019-05-21T22:26:55.383Z,35.80
2019-05-21T22:28:57.124Z,35.33
2019-05-21T22:30:58.790Z,35.10
2019-05-21T22:33:00.468Z,37.20
2019-05-21T22:35:02.137Z,35.90
2019-05-21T22:37:06.164Z,36.10
2019-05-21T22:39:14.456Z,33.67
2019-05-21T22:41:16.126Z,36.27
2019-05-21T22:43:17.806Z,34.57
2019-05-21T22:45:19.570Z,35.03
2019-05-21T22:47:21.474Z,36.40
2019-05-21T22:49:24.032Z,36.40
2019-05-21T22:51:25.706Z,35.73
2019-05-21T22:53:27.381Z,35.00
2019-05-21T22:55:29.056Z,35.07
2019-05-21T22:57:30.730Z,36.80
2019-05-21T22:59:32.402Z,35.90
2019-05-21T23:01:35.997Z,37.10
2019-05-21T23:03:37.861Z,35.97
2019-05-21T23:05:39.545Z,37.10
2019-05-21T23:07:41.221Z,35.20
2019-05-21T23:09:42.991Z,39.10
2019-05-21T23:11:44.922Z,36.87
2019-05-21T23:13:46.597Z,37.00
2019-05-21T23:15:49.585Z,38.13
2019-05-21T23:17:51.389Z,38.10
2019-05-21T23:19:54.350Z,36.00
2019-05-21T23:21:56.075Z,37.63
2019-05-21T23:23:58.326Z,35.37
2019-05-21T23:26:00.597Z,38.83
2019-05-21T23:28:03.183Z,38.10
2019-05-21T23:30:06.257Z,36.10
2019-05-21T23:32:08.620Z,37.70
2019-05-21T23:34:10.293Z,38.40
2019-05-21T23:36:12.785Z,36.33
2019-05-21T23:38:15.674Z,36.97
2019-05-21T23:40:17.647Z,36.80
2019-05-21T23:42:29.105Z,35.93
2019-05-21T23:44:24.059Z,36.50
2019-05-21T23:46:26.028Z,35.77
2019-05-21T23:48:28.292Z,39.70
2019-05-21T23:50:30.278Z,35.27
2019-05-21T23:52:32.806Z,33.70
2019-05-21T23:54:34.480Z,35.37
2019-05-21T23:56:36.491Z,34.73
2019-05-21T23:58:38.244Z,34.50
